sensor_id;sensor_type;location;lat;lon;timestamp;P1;durP1;ratioP1;P2;durP2;ratioP2
45358;SDS011;31096;49.292;8.710;2023-06-22T00:01:14;6.35;;;4.00;;
45358;SDS011;31096;49.292;8.710;2023-06-22T00:06:05;6.43;;;4.10;;
45358;SDS011;31096;49.292;8.710;2023-06-22T00:10:55;6.77;;;4.70;;
45358;SDS011;31096;49.292;8.710;2023-06-22T00:15:46;7.27;;;4.20;;
45358;SDS011;31096;49.292;8.710;2023-06-22T00:20:37;7.13;;;4.45;;
45358;SDS011;31096;49.292;8.710;2023-06-22T00:25:28;6.27;;;4.10;;
45358;SDS011;31096;49.292;8.710;2023-06-22T00:30:18;6.30;;;4.40;;
45358;SDS011;31096;49.292;8.710;2023-06-22T00:35:09;7.30;;;4.25;;
45358;SDS011;31096;49.292;8.710;2023-06-22T00:40:02;6.68;;;4.55;;
45358;SDS011;31096;49.292;8.710;2023-06-22T00:44:54;6.10;;;3.83;;
45358;SDS011;31096;49.292;8.710;2023-06-22T00:49:45;7.57;;;4.38;;
45358;SDS011;31096;49.292;8.710;2023-06-22T00:54:38;6.10;;;4.40;;
45358;SDS011;31096;49.292;8.710;2023-06-22T00:59:33;7.13;;;4.50;;
45358;SDS011;31096;49.292;8.710;2023-06-22T01:04:24;7.53;;;4.55;;
45358;SDS011;31096;49.292;8.710;2023-06-22T01:09:27;6.83;;;4.80;;
45358;SDS011;31096;49.292;8.710;2023-06-22T01:29:44;7.55;;;4.60;;
45358;SDS011;31096;49.292;8.710;2023-06-22T01:34:35;6.95;;;4.60;;
45358;SDS011;31096;49.292;8.710;2023-06-22T01:39:26;7.13;;;4.20;;
45358;SDS011;31096;49.292;8.710;2023-06-22T01:44:17;6.82;;;4.60;;
45358;SDS011;31096;49.292;8.710;2023-06-22T01:49:08;9.17;;;5.03;;
45358;SDS011;31096;49.292;8.710;2023-06-22T01:53:59;8.50;;;5.30;;
45358;SDS011;31096;49.292;8.710;2023-06-22T01:58:55;7.30;;;4.80;;
45358;SDS011;31096;49.292;8.710;2023-06-22T02:04:06;16.47;;;6.03;;
45358;SDS011;31096;49.292;8.710;2023-06-22T02:09:02;8.68;;;5.93;;
45358;SDS011;31096;49.292;8.710;2023-06-22T02:13:58;9.15;;;4.93;;
45358;SDS011;31096;49.292;8.710;2023-06-22T02:18:50;8.20;;;4.83;;
45358;SDS011;31096;49.292;8.710;2023-06-22T02:23:41;8.57;;;5.30;;
45358;SDS011;31096;49.292;8.710;2023-06-22T02:28:32;6.67;;;4.90;;
45358;SDS011;31096;49.292;8.710;2023-06-22T02:33:23;8.10;;;4.65;;
45358;SDS011;31096;49.292;8.710;2023-06-22T02:38:13;6.73;;;4.00;;
45358;SDS011;31096;49.292;8.710;2023-06-22T02:43:04;8.93;;;4.93;;
45358;SDS011;31096;49.292;8.710;2023-06-22T02:47:55;6.47;;;4.38;;
45358;SDS011;31096;49.292;8.710;2023-06-22T02:52:46;7.27;;;4.87;;
45358;SDS011;31096;49.292;8.710;2023-06-22T02:57:36;7.43;;;5.00;;
45358;SDS011;31096;49.292;8.710;2023-06-22T03:02:27;6.80;;;4.80;;
45358;SDS011;31096;49.292;8.710;2023-06-22T03:07:18;6.27;;;4.10;;
45358;SDS011;31096;49.292;8.710;2023-06-22T03:12:09;7.85;;;4.43;;
45358;SDS011;31096;49.292;8.710;2023-06-22T03:17:00;6.07;;;4.03;;
45358;SDS011;31096;49.292;8.710;2023-06-22T03:21:53;7.05;;;4.43;;
45358;SDS011;31096;49.292;8.710;2023-06-22T03:26:43;6.40;;;4.23;;
45358;SDS011;31096;49.292;8.710;2023-06-22T03:31:36;8.15;;;4.55;;
45358;SDS011;31096;49.292;8.710;2023-06-22T03:36:27;7.40;;;4.77;;
45358;SDS011;31096;49.292;8.710;2023-06-22T03:41:17;7.30;;;4.80;;
45358;SDS011;31096;49.292;8.710;2023-06-22T03:46:08;7.30;;;4.87;;
45358;SDS011;31096;49.292;8.710;2023-06-22T03:50:59;7.23;;;4.70;;
45358;SDS011;31096;49.292;8.710;2023-06-22T03:55:51;7.75;;;5.15;;
45358;SDS011;31096;49.292;8.710;2023-06-22T04:00:42;7.85;;;4.90;;
45358;SDS011;31096;49.292;8.710;2023-06-22T04:05:35;8.00;;;5.10;;
45358;SDS011;31096;49.292;8.710;2023-06-22T04:10:26;8.93;;;4.72;;
45358;SDS011;31096;49.292;8.710;2023-06-22T04:15:17;7.60;;;5.00;;
45358;SDS011;31096;49.292;8.710;2023-06-22T04:20:08;6.00;;;4.20;;
45358;SDS011;31096;49.292;8.710;2023-06-22T04:24:58;8.38;;;5.20;;
45358;SDS011;31096;49.292;8.710;2023-06-22T04:29:49;8.63;;;4.00;;
45358;SDS011;31096;49.292;8.710;2023-06-22T04:34:41;6.68;;;4.82;;
45358;SDS011;31096;49.292;8.710;2023-06-22T04:39:32;10.25;;;4.82;;
45358;SDS011;31096;49.292;8.710;2023-06-22T04:44:23;7.00;;;4.80;;
45358;SDS011;31096;49.292;8.710;2023-06-22T04:49:14;8.00;;;4.83;;
45358;SDS011;31096;49.292;8.710;2023-06-22T04:54:04;7.40;;;4.25;;
45358;SDS011;31096;49.292;8.710;2023-06-22T04:58:56;8.10;;;4.90;;
45358;SDS011;31096;49.292;8.710;2023-06-22T05:03:47;6.82;;;4.70;;
45358;SDS011;31096;49.292;8.710;2023-06-22T05:08:37;11.13;;;4.95;;
45358;SDS011;31096;49.292;8.710;2023-06-22T05:13:28;7.60;;;5.27;;
45358;SDS011;31096;49.292;8.710;2023-06-22T05:18:19;8.77;;;5.37;;
45358;SDS011;31096;49.292;8.710;2023-06-22T05:23:13;6.70;;;4.85;;
45358;SDS011;31096;49.292;8.710;2023-06-22T05:28:04;8.35;;;5.32;;
45358;SDS011;31096;49.292;8.710;2023-06-22T05:33:01;6.93;;;4.67;;
45358;SDS011;31096;49.292;8.710;2023-06-22T05:37:52;8.18;;;4.53;;
45358;SDS011;31096;49.292;8.710;2023-06-22T05:42:43;7.40;;;5.20;;
45358;SDS011;31096;49.292;8.710;2023-06-22T05:47:33;6.73;;;5.17;;
45358;SDS011;31096;49.292;8.710;2023-06-22T05:52:24;6.75;;;5.15;;
45358;SDS011;31096;49.292;8.710;2023-06-22T05:57:15;7.90;;;5.03;;
45358;SDS011;31096;49.292;8.710;2023-06-22T06:02:05;7.97;;;5.70;;
45358;SDS011;31096;49.292;8.710;2023-06-22T06:06:56;8.65;;;5.50;;
45358;SDS011;31096;49.292;8.710;2023-06-22T06:11:47;8.30;;;5.13;;
45358;SDS011;31096;49.292;8.710;2023-06-22T06:16:37;8.73;;;5.43;;
45358;SDS011;31096;49.292;8.710;2023-06-22T06:21:28;9.10;;;5.53;;
45358;SDS011;31096;49.292;8.710;2023-06-22T06:26:19;9.77;;;5.77;;
45358;SDS011;31096;49.292;8.710;2023-06-22T06:31:17;7.32;;;5.28;;
45358;SDS011;31096;49.292;8.710;2023-06-22T06:36:08;9.37;;;5.10;;
45358;SDS011;31096;49.292;8.710;2023-06-22T06:40:59;8.20;;;5.70;;
45358;SDS011;31096;49.292;8.710;2023-06-22T06:45:49;9.70;;;5.57;;
45358;SDS011;31096;49.292;8.710;2023-06-22T06:50:40;9.93;;;6.00;;
45358;SDS011;31096;49.292;8.710;2023-06-22T06:55:33;8.30;;;5.30;;
45358;SDS011;31096;49.292;8.710;2023-06-22T07:00:24;8.37;;;5.90;;
45358;SDS011;31096;49.292;8.710;2023-06-22T07:05:15;8.88;;;5.70;;
45358;SDS011;31096;49.292;8.710;2023-06-22T07:10:06;7.27;;;5.00;;
45358;SDS011;31096;49.292;8.710;2023-06-22T07:15:04;7.65;;;5.60;;
45358;SDS011;31096;49.292;8.710;2023-06-22T07:19:59;8.65;;;5.10;;
45358;SDS011;31096;49.292;8.710;2023-06-22T07:24:51;7.83;;;5.93;;
45358;SDS011;31096;49.292;8.710;2023-06-22T07:29:42;8.85;;;5.65;;
45358;SDS011;31096;49.292;8.710;2023-06-22T07:34:33;7.97;;;5.70;;
45358;SDS011;31096;49.292;8.710;2023-06-22T07:39:24;6.83;;;5.43;;
45358;SDS011;31096;49.292;8.710;2023-06-22T07:44:16;7.20;;;4.90;;
45358;SDS011;31096;49.292;8.710;2023-06-22T07:49:07;8.73;;;5.50;;
45358;SDS011;31096;49.292;8.710;2023-06-22T07:53:58;7.70;;;5.18;;
45358;SDS011;31096;49.292;8.710;2023-06-22T07:58:49;7.83;;;5.57;;
45358;SDS011;31096;49.292;8.710;2023-06-22T08:03:39;6.47;;;4.97;;
45358;SDS011;31096;49.292;8.710;2023-06-22T08:08:30;7.77;;;4.97;;
45358;SDS011;31096;49.292;8.710;2023-06-22T08:13:21;8.27;;;4.80;;
45358;SDS011;31096;49.292;8.710;2023-06-22T08:18:12;8.50;;;4.78;;
45358;SDS011;31096;49.292;8.710;2023-06-22T08:23:02;7.07;;;5.23;;
45358;SDS011;31096;49.292;8.710;2023-06-22T08:27:56;7.25;;;5.30;;
45358;SDS011;31096;49.292;8.710;2023-06-22T08:32:47;8.03;;;5.20;;
45358;SDS011;31096;49.292;8.710;2023-06-22T08:37:38;8.38;;;5.25;;
45358;SDS011;31096;49.292;8.710;2023-06-22T08:42:29;8.32;;;4.53;;
45358;SDS011;31096;49.292;8.710;2023-06-22T08:47:20;7.77;;;4.77;;
45358;SDS011;31096;49.292;8.710;2023-06-22T08:52:11;6.68;;;5.20;;
45358;SDS011;31096;49.292;8.710;2023-06-22T08:57:02;6.50;;;4.87;;
45358;SDS011;31096;49.292;8.710;2023-06-22T09:01:53;6.25;;;4.63;;
45358;SDS011;31096;49.292;8.710;2023-06-22T09:06:43;7.90;;;5.17;;
45358;SDS011;31096;49.292;8.710;2023-06-22T09:11:37;7.68;;;4.78;;
45358;SDS011;31096;49.292;8.710;2023-06-22T09:16:27;6.07;;;4.80;;
45358;SDS011;31096;49.292;8.710;2023-06-22T09:21:18;6.03;;;4.70;;
45358;SDS011;31096;49.292;8.710;2023-06-22T09:26:09;6.67;;;5.10;;
45358;SDS011;31096;49.292;8.710;2023-06-22T09:31:01;6.40;;;4.50;;
45358;SDS011;31096;49.292;8.710;2023-06-22T09:35:52;6.75;;;4.95;;
45358;SDS011;31096;49.292;8.710;2023-06-22T09:40:43;7.73;;;5.13;;
45358;SDS011;31096;49.292;8.710;2023-06-22T09:45:33;7.18;;;5.30;;
45358;SDS011;31096;49.292;8.710;2023-06-22T09:50:24;7.00;;;4.80;;
45358;SDS011;31096;49.292;8.710;2023-06-22T09:55:15;6.43;;;4.70;;
45358;SDS011;31096;49.292;8.710;2023-06-22T10:00:06;6.63;;;5.38;;
45358;SDS011;31096;49.292;8.710;2023-06-22T10:05:03;7.95;;;4.68;;
45358;SDS011;31096;49.292;8.710;2023-06-22T10:09:54;6.70;;;5.20;;
45358;SDS011;31096;49.292;8.710;2023-06-22T10:14:44;6.80;;;4.75;;
45358;SDS011;31096;49.292;8.710;2023-06-22T10:19:35;6.77;;;5.03;;
45358;SDS011;31096;49.292;8.710;2023-06-22T10:24:27;7.65;;;5.07;;
45358;SDS011;31096;49.292;8.710;2023-06-22T10:29:18;7.57;;;4.60;;
45358;SDS011;31096;49.292;8.710;2023-06-22T10:34:10;6.70;;;5.13;;
45358;SDS011;31096;49.292;8.710;2023-06-22T10:39:00;6.63;;;5.27;;
45358;SDS011;31096;49.292;8.710;2023-06-22T10:43:52;8.10;;;4.80;;
45358;SDS011;31096;49.292;8.710;2023-06-22T10:48:43;7.70;;;4.67;;
45358;SDS011;31096;49.292;8.710;2023-06-22T10:53:34;7.90;;;5.38;;
45358;SDS011;31096;49.292;8.710;2023-06-22T10:58:24;8.03;;;5.00;;
45358;SDS011;31096;49.292;8.710;2023-06-22T11:03:15;6.57;;;5.13;;
45358;SDS011;31096;49.292;8.710;2023-06-22T11:08:06;8.88;;;5.00;;
45358;SDS011;31096;49.292;8.710;2023-06-22T11:12:57;6.10;;;4.63;;
45358;SDS011;31096;49.292;8.710;2023-06-22T11:17:48;8.10;;;4.70;;
45358;SDS011;31096;49.292;8.710;2023-06-22T11:22:39;6.97;;;4.80;;
45358;SDS011;31096;49.292;8.710;2023-06-22T11:27:30;7.07;;;5.65;;
45358;SDS011;31096;49.292;8.710;2023-06-22T11:32:22;10.17;;;5.50;;
45358;SDS011;31096;49.292;8.710;2023-06-22T11:37:13;7.97;;;5.13;;
45358;SDS011;31096;49.292;8.710;2023-06-22T11:42:03;6.35;;;4.85;;
45358;SDS011;31096;49.292;8.710;2023-06-22T11:46:54;7.10;;;4.73;;
45358;SDS011;31096;49.292;8.710;2023-06-22T11:51:45;8.40;;;5.47;;
45358;SDS011;31096;49.292;8.710;2023-06-22T11:56:36;9.40;;;5.30;;
45358;SDS011;31096;49.292;8.710;2023-06-22T12:01:27;7.60;;;4.80;;
45358;SDS011;31096;49.292;8.710;2023-06-22T12:06:17;8.35;;;4.70;;
45358;SDS011;31096;49.292;8.710;2023-06-22T12:11:08;6.47;;;4.70;;
45358;SDS011;31096;49.292;8.710;2023-06-22T12:15:59;6.95;;;4.70;;
45358;SDS011;31096;49.292;8.710;2023-06-22T12:20:49;11.07;;;5.47;;
45358;SDS011;31096;49.292;8.710;2023-06-22T12:25:40;6.80;;;4.63;;
45358;SDS011;31096;49.292;8.710;2023-06-22T12:30:32;7.57;;;4.97;;
45358;SDS011;31096;49.292;8.710;2023-06-22T12:35:23;7.63;;;5.10;;
45358;SDS011;31096;49.292;8.710;2023-06-22T12:40:14;7.83;;;5.27;;
45358;SDS011;31096;49.292;8.710;2023-06-22T12:45:05;7.53;;;5.03;;
45358;SDS011;31096;49.292;8.710;2023-06-22T12:49:56;7.22;;;4.80;;
45358;SDS011;31096;49.292;8.710;2023-06-22T12:54:47;9.57;;;5.05;;
45358;SDS011;31096;49.292;8.710;2023-06-22T12:59:38;6.80;;;5.27;;
45358;SDS011;31096;49.292;8.710;2023-06-22T13:04:29;10.85;;;4.90;;
45358;SDS011;31096;49.292;8.710;2023-06-22T13:09:21;7.57;;;5.20;;
45358;SDS011;31096;49.292;8.710;2023-06-22T13:14:11;7.20;;;5.53;;
45358;SDS011;31096;49.292;8.710;2023-06-22T13:19:02;8.77;;;5.40;;
45358;SDS011;31096;49.292;8.710;2023-06-22T13:23:53;8.40;;;5.07;;
45358;SDS011;31096;49.292;8.710;2023-06-22T13:28:44;9.33;;;5.90;;
45358;SDS011;31096;49.292;8.710;2023-06-22T13:33:34;6.47;;;4.97;;
45358;SDS011;31096;49.292;8.710;2023-06-22T13:38:25;7.35;;;4.85;;
45358;SDS011;31096;49.292;8.710;2023-06-22T13:43:16;9.80;;;5.30;;
45358;SDS011;31096;49.292;8.710;2023-06-22T13:48:07;11.10;;;4.95;;
45358;SDS011;31096;49.292;8.710;2023-06-22T13:52:59;9.43;;;5.50;;
45358;SDS011;31096;49.292;8.710;2023-06-22T13:57:49;8.27;;;5.20;;
45358;SDS011;31096;49.292;8.710;2023-06-22T14:02:41;8.13;;;5.40;;
45358;SDS011;31096;49.292;8.710;2023-06-22T14:07:32;7.33;;;5.13;;
45358;SDS011;31096;49.292;8.710;2023-06-22T14:12:22;10.15;;;5.50;;
45358;SDS011;31096;49.292;8.710;2023-06-22T14:17:14;10.67;;;5.73;;
45358;SDS011;31096;49.292;8.710;2023-06-22T14:22:04;7.93;;;5.60;;
45358;SDS011;31096;49.292;8.710;2023-06-22T14:26:55;7.37;;;5.33;;
45358;SDS011;31096;49.292;8.710;2023-06-22T14:31:46;8.25;;;5.55;;
45358;SDS011;31096;49.292;8.710;2023-06-22T14:36:37;7.30;;;5.20;;
45358;SDS011;31096;49.292;8.710;2023-06-22T14:41:29;7.18;;;4.93;;
45358;SDS011;31096;49.292;8.710;2023-06-22T14:46:21;12.07;;;5.47;;
45358;SDS011;31096;49.292;8.710;2023-06-22T14:51:11;8.83;;;5.83;;
45358;SDS011;31096;49.292;8.710;2023-06-22T14:56:03;10.88;;;6.43;;
45358;SDS011;31096;49.292;8.710;2023-06-22T15:00:54;9.90;;;5.93;;
45358;SDS011;31096;49.292;8.710;2023-06-22T15:05:45;7.50;;;4.82;;
45358;SDS011;31096;49.292;8.710;2023-06-22T15:10:36;11.83;;;5.20;;
45358;SDS011;31096;49.292;8.710;2023-06-22T15:15:27;9.03;;;5.80;;
45358;SDS011;31096;49.292;8.710;2023-06-22T15:20:18;10.43;;;6.20;;
45358;SDS011;31096;49.292;8.710;2023-06-22T15:25:08;8.00;;;5.60;;
45358;SDS011;31096;49.292;8.710;2023-06-22T15:30:00;7.40;;;5.38;;
45358;SDS011;31096;49.292;8.710;2023-06-22T15:34:53;8.67;;;6.20;;
45358;SDS011;31096;49.292;8.710;2023-06-22T15:39:44;8.57;;;5.33;;
45358;SDS011;31096;49.292;8.710;2023-06-22T15:44:34;9.65;;;5.85;;
45358;SDS011;31096;49.292;8.710;2023-06-22T15:49:25;11.13;;;6.00;;
45358;SDS011;31096;49.292;8.710;2023-06-22T15:54:17;10.10;;;5.65;;
45358;SDS011;31096;49.292;8.710;2023-06-22T15:59:08;8.00;;;5.50;;
45358;SDS011;31096;49.292;8.710;2023-06-22T16:04:00;9.80;;;6.97;;
45358;SDS011;31096;49.292;8.710;2023-06-22T16:08:50;8.07;;;5.53;;
45358;SDS011;31096;49.292;8.710;2023-06-22T16:13:41;10.80;;;6.15;;
45358;SDS011;31096;49.292;8.710;2023-06-22T16:18:32;8.97;;;5.73;;
45358;SDS011;31096;49.292;8.710;2023-06-22T16:23:23;11.30;;;5.97;;
45358;SDS011;31096;49.292;8.710;2023-06-22T16:28:14;11.23;;;5.83;;
45358;SDS011;31096;49.292;8.710;2023-06-22T16:33:04;10.80;;;5.43;;
45358;SDS011;31096;49.292;8.710;2023-06-22T16:37:55;11.70;;;5.93;;
45358;SDS011;31096;49.292;8.710;2023-06-22T16:42:46;12.88;;;6.63;;
45358;SDS011;31096;49.292;8.710;2023-06-22T16:47:38;9.95;;;6.00;;
45358;SDS011;31096;49.292;8.710;2023-06-22T16:52:29;9.10;;;5.47;;
45358;SDS011;31096;49.292;8.710;2023-06-22T16:57:19;10.83;;;5.90;;
45358;SDS011;31096;49.292;8.710;2023-06-22T17:02:14;9.63;;;5.50;;
45358;SDS011;31096;49.292;8.710;2023-06-22T17:07:09;11.30;;;6.43;;
45358;SDS011;31096;49.292;8.710;2023-06-22T17:12:04;8.77;;;5.60;;
45358;SDS011;31096;49.292;8.710;2023-06-22T17:16:56;16.17;;;6.20;;
45358;SDS011;31096;49.292;8.710;2023-06-22T17:21:46;8.35;;;5.57;;
45358;SDS011;31096;49.292;8.710;2023-06-22T17:26:37;15.40;;;5.77;;
45358;SDS011;31096;49.292;8.710;2023-06-22T17:31:38;11.40;;;5.57;;
45358;SDS011;31096;49.292;8.710;2023-06-22T17:41:33;11.90;;;6.00;;
45358;SDS011;31096;49.292;8.710;2023-06-22T17:46:24;10.33;;;5.30;;
45358;SDS011;31096;49.292;8.710;2023-06-22T17:51:15;8.55;;;5.43;;
45358;SDS011;31096;49.292;8.710;2023-06-22T17:56:06;8.90;;;4.70;;
45358;SDS011;31096;49.292;8.710;2023-06-22T18:00:57;8.60;;;4.63;;
45358;SDS011;31096;49.292;8.710;2023-06-22T18:05:47;6.57;;;4.00;;
45358;SDS011;31096;49.292;8.710;2023-06-22T18:10:38;9.07;;;4.30;;
45358;SDS011;31096;49.292;8.710;2023-06-22T18:15:31;7.18;;;4.35;;
45358;SDS011;31096;49.292;8.710;2023-06-22T18:20:23;12.05;;;4.22;;
45358;SDS011;31096;49.292;8.710;2023-06-22T18:25:14;7.43;;;4.03;;
45358;SDS011;31096;49.292;8.710;2023-06-22T18:30:06;8.10;;;4.15;;
45358;SDS011;31096;49.292;8.710;2023-06-22T18:34:58;8.40;;;3.85;;
45358;SDS011;31096;49.292;8.710;2023-06-22T18:39:52;6.70;;;3.70;;
45358;SDS011;31096;49.292;8.710;2023-06-22T18:44:43;7.72;;;3.33;;
45358;SDS011;31096;49.292;8.710;2023-06-22T18:54:36;6.95;;;3.38;;
45358;SDS011;31096;49.292;8.710;2023-06-22T19:10:44;10.13;;;3.60;;
45358;SDS011;31096;49.292;8.710;2023-06-22T19:15:29;5.28;;;3.33;;
45358;SDS011;31096;49.292;8.710;2023-06-22T19:20:25;6.50;;;3.88;;
45358;SDS011;31096;49.292;8.710;2023-06-22T19:25:27;5.60;;;3.37;;
45358;SDS011;31096;49.292;8.710;2023-06-22T19:30:22;7.43;;;3.20;;
45358;SDS011;31096;49.292;8.710;2023-06-22T19:35:13;6.45;;;3.20;;
45358;SDS011;31096;49.292;8.710;2023-06-22T19:40:14;6.50;;;3.60;;
45358;SDS011;31096;49.292;8.710;2023-06-22T19:45:06;6.05;;;3.15;;
45358;SDS011;31096;49.292;8.710;2023-06-22T19:49:59;5.68;;;3.40;;
45358;SDS011;31096;49.292;8.710;2023-06-22T19:54:51;5.17;;;3.13;;
45358;SDS011;31096;49.292;8.710;2023-06-22T19:59:42;5.90;;;3.20;;
45358;SDS011;31096;49.292;8.710;2023-06-22T20:04:34;4.53;;;2.63;;
45358;SDS011;31096;49.292;8.710;2023-06-22T20:09:27;5.20;;;2.80;;
45358;SDS011;31096;49.292;8.710;2023-06-22T20:14:19;6.63;;;2.50;;
45358;SDS011;31096;49.292;8.710;2023-06-22T20:19:10;6.40;;;2.40;;
45358;SDS011;31096;49.292;8.710;2023-06-22T20:24:07;3.80;;;1.90;;
45358;SDS011;31096;49.292;8.710;2023-06-22T20:29:00;3.75;;;2.08;;
45358;SDS011;31096;49.292;8.710;2023-06-22T20:34:02;4.93;;;2.17;;
45358;SDS011;31096;49.292;8.710;2023-06-22T20:38:53;4.68;;;1.90;;
45358;SDS011;31096;49.292;8.710;2023-06-22T20:43:44;3.73;;;2.07;;
45358;SDS011;31096;49.292;8.710;2023-06-22T20:48:43;4.25;;;1.90;;
45358;SDS011;31096;49.292;8.710;2023-06-22T20:53:34;4.63;;;2.00;;
45358;SDS011;31096;49.292;8.710;2023-06-22T20:58:25;3.53;;;1.90;;
45358;SDS011;31096;49.292;8.710;2023-06-22T21:03:15;4.63;;;2.10;;
45358;SDS011;31096;49.292;8.710;2023-06-22T21:08:06;6.53;;;2.17;;
45358;SDS011;31096;49.292;8.710;2023-06-22T21:12:57;4.83;;;2.00;;
45358;SDS011;31096;49.292;8.710;2023-06-22T21:17:49;5.03;;;2.00;;
45358;SDS011;31096;49.292;8.710;2023-06-22T21:22:40;3.67;;;1.98;;
45358;SDS011;31096;49.292;8.710;2023-06-22T21:27:31;6.53;;;2.35;;
45358;SDS011;31096;49.292;8.710;2023-06-22T21:32:22;4.30;;;2.40;;
45358;SDS011;31096;49.292;8.710;2023-06-22T21:37:18;4.22;;;2.10;;
45358;SDS011;31096;49.292;8.710;2023-06-22T21:42:08;4.33;;;2.10;;
45358;SDS011;31096;49.292;8.710;2023-06-22T21:46:59;3.70;;;2.10;;
45358;SDS011;31096;49.292;8.710;2023-06-22T21:51:50;4.00;;;2.33;;
45358;SDS011;31096;49.292;8.710;2023-06-22T21:56:41;4.80;;;2.20;;
45358;SDS011;31096;49.292;8.710;2023-06-22T22:01:32;4.78;;;2.15;;
45358;SDS011;31096;49.292;8.710;2023-06-22T22:06:23;4.18;;;2.22;;
45358;SDS011;31096;49.292;8.710;2023-06-22T22:11:16;4.40;;;1.87;;
45358;SDS011;31096;49.292;8.710;2023-06-22T22:16:07;5.40;;;1.85;;
45358;SDS011;31096;49.292;8.710;2023-06-22T22:20:58;4.40;;;1.87;;
45358;SDS011;31096;49.292;8.710;2023-06-22T22:25:48;4.47;;;2.03;;
45358;SDS011;31096;49.292;8.710;2023-06-22T22:36:12;4.45;;;1.67;;
45358;SDS011;31096;49.292;8.710;2023-06-22T22:41:04;3.70;;;2.00;;
45358;SDS011;31096;49.292;8.710;2023-06-22T22:45:54;3.70;;;2.10;;
45358;SDS011;31096;49.292;8.710;2023-06-22T22:50:45;3.80;;;2.00;;
45358;SDS011;31096;49.292;8.710;2023-06-22T22:55:37;3.92;;;2.10;;
45358;SDS011;31096;49.292;8.710;2023-06-22T23:00:27;4.10;;;2.23;;
45358;SDS011;31096;49.292;8.710;2023-06-22T23:05:18;5.17;;;2.00;;
45358;SDS011;31096;49.292;8.710;2023-06-22T23:10:09;4.63;;;2.00;;
45358;SDS011;31096;49.292;8.710;2023-06-22T23:15:02;5.28;;;2.28;;
45358;SDS011;31096;49.292;8.710;2023-06-22T23:19:53;4.03;;;2.40;;
45358;SDS011;31096;49.292;8.710;2023-06-22T23:24:45;4.63;;;2.13;;
45358;SDS011;31096;49.292;8.710;2023-06-22T23:29:36;5.10;;;2.47;;
45358;SDS011;31096;49.292;8.710;2023-06-22T23:34:27;4.53;;;2.90;;
45358;SDS011;31096;49.292;8.710;2023-06-22T23:39:19;5.67;;;2.83;;
45358;SDS011;31096;49.292;8.710;2023-06-22T23:44:09;4.00;;;2.47;;
45358;SDS011;31096;49.292;8.710;2023-06-22T23:49:00;4.67;;;2.93;;
45358;SDS011;31096;49.292;8.710;2023-06-22T23:53:52;4.95;;;2.72;;
45358;SDS011;31096;49.292;8.710;2023-06-22T23:58:43;4.47;;;2.83;;
